createdAt,value
2022-07-29T00:01:56.639Z,34.30
2022-07-29T00:04:58.719Z,34.37
2022-07-29T00:08:00.689Z,35.95
2022-07-29T00:11:02.616Z,35.05
2022-07-29T00:14:04.576Z,34.53
2022-07-29T00:17:06.504Z,35.65
2022-07-29T00:20:08.661Z,34.67
2022-07-29T00:23:13.482Z,36.29
2022-07-29T00:26:15.640Z,37.39
2022-07-29T00:29:33.612Z,36.74
2022-07-29T00:32:36.240Z,35.76
2022-07-29T00:35:47.462Z,35.02
2022-07-29T00:38:49.822Z,35.72
2022-07-29T00:41:51.670Z,35.67
2022-07-29T00:44:54.074Z,35.52
2022-07-29T00:47:56.182Z,34.95
2022-07-29T00:50:58.675Z,37.08
2022-07-29T00:54:00.583Z,36.58
2022-07-29T00:57:02.656Z,35.33
2022-07-29T01:00:05.380Z,35.13
2022-07-29T01:03:07.655Z,34.69
2022-07-29T01:06:09.519Z,35.98
2022-07-29T01:09:11.936Z,35.56
2022-07-29T01:12:21.419Z,36.70
2022-07-29T01:15:23.345Z,37.79
2022-07-29T01:18:29.749Z,37.70
2022-07-29T01:21:44.256Z,36.99
2022-07-29T01:25:04.470Z,36.60
2022-07-29T01:28:29.141Z,35.60
2022-07-29T01:31:51.352Z,35.46
2022-07-29T01:35:01.461Z,36.94
2022-07-29T01:38:18.500Z,37.01
2022-07-29T01:41:21.002Z,36.35
2022-07-29T01:44:24.213Z,35.82
2022-07-29T01:47:27.145Z,36.05
2022-07-29T01:50:35.994Z,35.66
2022-07-29T01:53:43.938Z,37.07
2022-07-29T01:56:46.341Z,38.14
2022-07-29T01:59:48.655Z,37.35
2022-07-29T02:02:50.637Z,37.38
2022-07-29T02:05:52.521Z,39.28
2022-07-29T02:08:54.424Z,39.91
2022-07-29T02:11:56.312Z,38.55
2022-07-29T02:14:58.193Z,40.48
2022-07-29T02:18:06.694Z,41.88
2022-07-29T02:21:14.795Z,41.59
2022-07-29T02:24:18.791Z,40.94
2022-07-29T02:27:20.868Z,40.62
2022-07-29T02:30:23.145Z,41.25
2022-07-29T02:33:25.038Z,40.88
2022-07-29T02:36:27.010Z,39.47
2022-07-29T02:39:28.941Z,41.93
2022-07-29T02:42:30.829Z,41.72
2022-07-29T02:45:33.074Z,41.57
2022-07-29T02:48:43.032Z,41.14
2022-07-29T02:51:46.651Z,40.93
2022-07-29T02:55:17.794Z,42.56
2022-07-29T02:58:19.696Z,41.96
2022-07-29T03:01:23.741Z,41.94
2022-07-29T03:04:26.081Z,42.07
2022-07-29T03:07:28.203Z,41.15
2022-07-29T03:10:30.201Z,41.24
2022-07-29T03:13:32.237Z,40.63
2022-07-29T03:16:41.117Z,40.37
2022-07-29T03:19:43.413Z,43.21
2022-07-29T03:22:47.726Z,43.63
2022-07-29T03:25:49.924Z,42.67
2022-07-29T03:28:51.771Z,41.53
2022-07-29T03:31:53.823Z,40.36
2022-07-29T03:34:56.100Z,39.62
2022-07-29T03:37:58.264Z,40.68
2022-07-29T03:41:02.686Z,43.17
2022-07-29T03:44:05.055Z,43.42
2022-07-29T03:47:07.021Z,44.70
2022-07-29T03:50:10.730Z,44.24
2022-07-29T03:53:12.722Z,42.56
2022-07-29T03:56:16.453Z,43.97
2022-07-29T03:59:18.325Z,44.26
2022-07-29T04:02:23.585Z,44.41
2022-07-29T04:05:27.117Z,43.83
2022-07-29T04:08:28.996Z,44.44
2022-07-29T04:11:30.901Z,43.60
2022-07-29T04:14:33.036Z,43.45
2022-07-29T04:17:35.384Z,44.28
2022-07-29T04:20:37.328Z,44.07
2022-07-29T04:23:52.964Z,42.87
2022-07-29T04:26:55.945Z,42.47
2022-07-29T04:29:57.851Z,43.84
2022-07-29T04:33:00.004Z,43.27
2022-07-29T04:36:01.893Z,42.91
2022-07-29T04:39:05.165Z,43.22
2022-07-29T04:42:07.078Z,43.19
2022-07-29T04:45:10.649Z,42.11
2022-07-29T04:48:12.669Z,42.90
2022-07-29T04:51:15.217Z,42.76
2022-07-29T04:54:17.625Z,41.96
2022-07-29T04:57:19.883Z,41.72
2022-07-29T05:00:21.790Z,41.12
2022-07-29T05:03:30.254Z,39.30
2022-07-29T05:06:32.164Z,40.16
2022-07-29T05:09:34.110Z,39.67
2022-07-29T05:12:36.359Z,37.95
2022-07-29T05:15:38.865Z,37.90
2022-07-29T05:18:40.922Z,34.98
2022-07-29T05:21:43.109Z,38.62
2022-07-29T05:24:45.006Z,37.49
2022-07-29T05:27:46.853Z,37.19
2022-07-29T05:30:53.074Z,37.81
2022-07-29T05:33:54.979Z,34.87
2022-07-29T05:36:56.815Z,37.32
2022-07-29T05:39:59.195Z,36.48
2022-07-29T05:43:01.079Z,35.43
2022-07-29T05:46:03.108Z,35.12
2022-07-29T05:49:05.321Z,36.82
2022-07-29T05:52:07.217Z,36.46
2022-07-29T05:55:11.152Z,34.36
2022-07-29T05:58:13.459Z,33.61
2022-07-29T06:01:15.448Z,32.95
2022-07-29T06:04:17.694Z,33.92
2022-07-29T06:07:20.268Z,33.53
2022-07-29T06:10:23.966Z,31.68
2022-07-29T06:13:28.944Z,29.76
2022-07-29T06:16:30.840Z,31.23
2022-07-29T06:19:34.659Z,30.38
2022-07-29T06:22:36.896Z,29.97
2022-07-29T06:25:40.785Z,28.75
2022-07-29T06:28:42.651Z,27.85
2022-07-29T06:31:44.562Z,30.23
2022-07-29T06:34:49.029Z,27.45
2022-07-29T06:37:51.078Z,28.14
2022-07-29T06:41:03.306Z,30.09
2022-07-29T06:44:08.029Z,29.72
2022-07-29T06:47:10.040Z,30.83
2022-07-29T06:50:13.638Z,27.82
2022-07-29T06:53:15.523Z,29.05
2022-07-29T06:56:17.551Z,29.07
2022-07-29T06:59:21.678Z,27.23
2022-07-29T07:02:28.644Z,26.88
2022-07-29T07:05:30.856Z,30.76
2022-07-29T07:08:33.259Z,26.84
2022-07-29T07:11:35.222Z,24.06
2022-07-29T07:14:38.481Z,27.60
2022-07-29T07:17:40.458Z,26.08
2022-07-29T07:20:42.553Z,22.51
2022-07-29T07:23:44.440Z,25.29
2022-07-29T07:26:46.640Z,23.44
2022-07-29T07:29:48.801Z,24.62
2022-07-29T07:32:50.767Z,25.84
2022-07-29T07:35:52.766Z,22.40
2022-07-29T07:38:54.864Z,21.54
2022-07-29T07:41:56.808Z,21.74
2022-07-29T07:45:13.131Z,20.85
2022-07-29T07:48:15.940Z,23.83
2022-07-29T07:51:17.857Z,22.54
2022-07-29T07:54:20.753Z,23.32
2022-07-29T07:57:22.934Z,25.10
2022-07-29T08:00:25.082Z,24.74
2022-07-29T08:03:26.984Z,25.13
2022-07-29T08:06:29.105Z,23.67
2022-07-29T08:09:31.146Z,22.47
2022-07-29T08:12:33.105Z,20.34
2022-07-29T08:15:39.650Z,22.79
2022-07-29T08:18:42.116Z,19.62
2022-07-29T08:21:44.009Z,21.79
2022-07-29T08:24:53.433Z,20.85
2022-07-29T08:27:57.530Z,21.91
2022-07-29T08:30:59.614Z,21.39
2022-07-29T08:34:01.543Z,20.44
2022-07-29T08:37:03.464Z,18.53
2022-07-29T08:40:07.202Z,16.90
2022-07-29T08:43:09.736Z,20.83
2022-07-29T08:46:11.817Z,19.70
2022-07-29T08:49:13.820Z,19.46
2022-07-29T08:52:16.256Z,20.96
2022-07-29T08:55:21.444Z,18.94
2022-07-29T08:58:24.964Z,20.48
2022-07-29T09:01:35.972Z,21.11
2022-07-29T09:04:44.301Z,21.19
2022-07-29T09:07:49.088Z,20.71
2022-07-29T09:10:52.239Z,19.65
2022-07-29T09:13:54.155Z,17.14
2022-07-29T09:16:57.122Z,20.27
2022-07-29T09:20:09.781Z,19.87
2022-07-29T09:23:11.779Z,17.87
2022-07-29T09:26:27.165Z,17.54
2022-07-29T09:29:32.156Z,18.16
2022-07-29T09:32:54.742Z,17.96
2022-07-29T09:36:00.968Z,16.51
2022-07-29T09:39:04.143Z,16.63
2022-07-29T09:42:06.879Z,15.91
2022-07-29T09:45:09.116Z,16.93
2022-07-29T09:48:15.251Z,16.90
2022-07-29T09:51:24.115Z,15.55
2022-07-29T09:54:29.418Z,15.25
2022-07-29T09:57:31.472Z,16.33
2022-07-29T10:00:33.671Z,15.48
2022-07-29T10:03:51.508Z,15.04
2022-07-29T10:07:04.382Z,14.91
2022-07-29T10:10:07.146Z,16.36
2022-07-29T10:13:15.843Z,17.91
2022-07-29T10:16:19.071Z,18.49
2022-07-29T10:19:21.235Z,19.50
2022-07-29T10:22:50.796Z,18.57
2022-07-29T10:25:46.877Z,17.28
2022-07-29T10:28:49.090Z,16.94
2022-07-29T10:32:15.091Z,16.04
2022-07-29T10:35:21.906Z,17.25
2022-07-29T10:38:45.644Z,19.05
2022-07-29T10:42:08.388Z,18.14
2022-07-29T10:45:11.093Z,18.36
2022-07-29T10:48:14.158Z,16.84
2022-07-29T10:51:16.898Z,16.71
2022-07-29T10:54:20.636Z,14.99
2022-07-29T10:57:54.178Z,15.25
2022-07-29T11:00:52.794Z,13.58
2022-07-29T11:03:57.219Z,12.92
2022-07-29T11:07:04.015Z,12.48
2022-07-29T11:10:15.338Z,11.80
2022-07-29T11:13:39.718Z,13.98
2022-07-29T11:17:13.957Z,13.63
2022-07-29T11:20:31.466Z,14.82
2022-07-29T11:23:36.723Z,12.76
2022-07-29T11:26:41.408Z,13.56
2022-07-29T11:29:57.415Z,11.86
2022-07-29T11:33:00.915Z,12.10
2022-07-29T11:36:16.711Z,11.52
2022-07-29T11:39:36.686Z,11.60
2022-07-29T11:42:52.128Z,12.90
2022-07-29T11:45:54.255Z,12.20
2022-07-29T11:48:56.621Z,11.68
2022-07-29T11:51:59.118Z,14.79
2022-07-29T11:55:09.841Z,11.91
2022-07-29T11:58:13.199Z,11.56
2022-07-29T12:01:17.866Z,10.77
2022-07-29T12:04:19.965Z,14.94
2022-07-29T12:07:32.689Z,14.18
2022-07-29T12:10:37.091Z,15.67
2022-07-29T12:13:39.725Z,14.75
2022-07-29T12:16:41.650Z,15.91
2022-07-29T12:19:44.501Z,18.40
2022-07-29T12:22:49.496Z,17.71
2022-07-29T12:25:51.453Z,14.90
2022-07-29T12:28:55.868Z,14.86
2022-07-29T12:31:59.496Z,16.46
2022-07-29T12:35:06.103Z,17.49
2022-07-29T12:38:10.059Z,17.26
2022-07-29T12:41:11.943Z,17.10
2022-07-29T12:44:15.764Z,17.82
2022-07-29T12:47:19.194Z,17.73
2022-07-29T12:50:25.896Z,16.68
2022-07-29T12:53:28.638Z,16.83
2022-07-29T12:56:42.596Z,18.37
2022-07-29T12:59:45.606Z,17.90
2022-07-29T13:02:47.942Z,17.64
2022-07-29T13:05:51.491Z,18.07
2022-07-29T13:09:11.990Z,17.56
2022-07-29T13:12:14.251Z,18.85
2022-07-29T13:15:16.357Z,18.52
2022-07-29T13:18:34.891Z,18.79
2022-07-29T13:21:37.152Z,18.03
2022-07-29T13:24:49.423Z,18.27
2022-07-29T13:27:51.378Z,16.98
2022-07-29T13:30:55.371Z,18.08
2022-07-29T13:33:57.484Z,18.60
2022-07-29T13:36:59.367Z,18.43
2022-07-29T13:40:01.784Z,17.25
2022-07-29T13:43:03.807Z,18.52
2022-07-29T13:46:06.047Z,17.08
2022-07-29T13:49:08.014Z,18.53
2022-07-29T13:52:10.069Z,18.47
2022-07-29T13:55:12.011Z,18.07
2022-07-29T13:58:13.895Z,17.52
2022-07-29T14:01:15.868Z,17.12
2022-07-29T14:04:18.323Z,18.35
2022-07-29T14:07:20.244Z,17.76
2022-07-29T14:10:22.119Z,19.24
2022-07-29T14:13:25.306Z,17.96
2022-07-29T14:16:28.279Z,17.63
2022-07-29T14:19:30.203Z,17.81
2022-07-29T14:22:32.202Z,17.72
2022-07-29T14:25:34.225Z,18.88
2022-07-29T14:28:41.512Z,17.91
2022-07-29T14:31:44.843Z,17.65
2022-07-29T14:34:46.896Z,18.54
2022-07-29T14:37:48.782Z,19.11
2022-07-29T14:40:50.929Z,18.28
2022-07-29T14:43:54.459Z,18.30
2022-07-29T14:46:56.844Z,19.17
2022-07-29T14:49:58.703Z,18.07
2022-07-29T14:53:01.033Z,19.17
2022-07-29T14:56:21.203Z,19.02
2022-07-29T14:59:24.897Z,19.16
2022-07-29T15:02:45.736Z,18.20
2022-07-29T15:05:48.657Z,18.64
2022-07-29T15:08:50.719Z,18.01
2022-07-29T15:11:52.677Z,18.89
2022-07-29T15:14:54.581Z,18.20
2022-07-29T15:17:56.548Z,18.22
2022-07-29T15:20:58.379Z,18.32
2022-07-29T15:24:00.298Z,18.78
2022-07-29T15:27:02.220Z,19.38
2022-07-29T15:30:04.301Z,18.05
2022-07-29T15:33:06.568Z,17.71
2022-07-29T15:36:08.643Z,18.78
2022-07-29T15:39:10.595Z,18.01
2022-07-29T15:42:12.557Z,19.17
2022-07-29T15:45:14.407Z,18.16
2022-07-29T15:48:16.371Z,18.45
2022-07-29T15:51:20.220Z,19.00
2022-07-29T15:54:22.180Z,18.94
2022-07-29T15:57:24.674Z,19.03
2022-07-29T16:00:26.696Z,18.86
2022-07-29T16:03:28.661Z,18.92
2022-07-29T16:06:30.605Z,19.57
2022-07-29T16:09:32.518Z,18.97
2022-07-29T16:12:34.601Z,19.01
2022-07-29T16:15:36.490Z,19.38
2022-07-29T16:18:38.350Z,19.85
2022-07-29T16:21:40.547Z,20.14
2022-07-29T16:24:42.425Z,18.96
2022-07-29T16:27:44.338Z,20.19
2022-07-29T16:30:46.518Z,20.00
2022-07-29T16:33:54.717Z,19.33
2022-07-29T16:36:57.784Z,19.37
2022-07-29T16:39:59.736Z,18.93
2022-07-29T16:43:01.745Z,18.57
2022-07-29T16:46:03.718Z,19.40
2022-07-29T16:49:07.033Z,18.96
2022-07-29T16:52:08.904Z,18.50
2022-07-29T16:55:10.799Z,19.49
2022-07-29T16:58:12.800Z,19.28
2022-07-29T17:01:14.809Z,20.04
2022-07-29T17:04:17.238Z,19.83
2022-07-29T17:07:19.195Z,19.49
2022-07-29T17:10:22.536Z,19.05
2022-07-29T17:13:24.585Z,18.54
2022-07-29T17:16:26.884Z,18.90
2022-07-29T17:19:31.907Z,19.27
2022-07-29T17:22:33.861Z,19.39
2022-07-29T17:25:35.929Z,19.79
2022-07-29T17:28:37.967Z,19.26
2022-07-29T17:31:39.940Z,18.96
2022-07-29T17:34:42.447Z,20.26
2022-07-29T17:37:44.315Z,21.08
2022-07-29T17:40:46.280Z,19.92
2022-07-29T17:43:48.837Z,19.32
2022-07-29T17:46:50.775Z,19.84
2022-07-29T17:49:53.670Z,20.29
2022-07-29T17:52:55.521Z,19.98
2022-07-29T17:55:58.723Z,20.15
2022-07-29T17:59:06.617Z,20.03
2022-07-29T18:02:08.688Z,20.43
2022-07-29T18:05:10.813Z,20.39
2022-07-29T18:08:12.622Z,20.06
2022-07-29T18:11:15.151Z,20.55
2022-07-29T18:14:17.215Z,21.26
2022-07-29T18:17:19.206Z,21.00
2022-07-29T18:20:21.097Z,21.46
2022-07-29T18:23:23.205Z,21.31
2022-07-29T18:26:25.040Z,21.56
2022-07-29T18:29:32.414Z,21.15
2022-07-29T18:32:34.385Z,21.55
2022-07-29T18:35:36.340Z,22.09
2022-07-29T18:38:38.551Z,22.23
2022-07-29T18:41:46.050Z,22.08
2022-07-29T18:44:52.472Z,22.04
2022-07-29T18:47:54.486Z,21.95
2022-07-29T18:50:56.825Z,22.78
2022-07-29T18:53:58.798Z,23.63
2022-07-29T18:57:01.243Z,24.67
2022-07-29T19:00:24.690Z,24.35
2022-07-29T19:03:26.733Z,24.41
2022-07-29T19:06:28.739Z,25.22
2022-07-29T19:09:30.642Z,25.90
2022-07-29T19:12:32.515Z,28.40
2022-07-29T19:15:34.483Z,27.62
2022-07-29T19:18:36.306Z,27.40
2022-07-29T19:21:38.242Z,28.24
2022-07-29T19:24:40.835Z,28.86
2022-07-29T19:27:42.709Z,29.44
2022-07-29T19:30:44.546Z,29.56
2022-07-29T19:33:46.479Z,29.79
2022-07-29T19:36:48.463Z,30.07
2022-07-29T19:39:50.328Z,29.31
2022-07-29T19:42:53.071Z,30.62
2022-07-29T19:45:54.990Z,30.48
2022-07-29T19:48:57.022Z,29.89
2022-07-29T19:51:59.131Z,30.27
2022-07-29T19:55:06.859Z,31.11
2022-07-29T19:58:09.357Z,31.90
2022-07-29T20:01:11.522Z,30.78
2022-07-29T20:04:13.381Z,31.05
2022-07-29T20:07:15.329Z,31.61
2022-07-29T20:10:17.393Z,32.15
2022-07-29T20:13:19.362Z,33.45
2022-07-29T20:16:22.297Z,32.75
2022-07-29T20:19:24.306Z,33.51
2022-07-29T20:22:26.144Z,34.03
2022-07-29T20:25:28.248Z,34.88
2022-07-29T20:28:30.121Z,34.75
2022-07-29T20:31:32.603Z,35.07
2022-07-29T20:34:34.530Z,35.15
2022-07-29T20:37:55.888Z,35.46
2022-07-29T20:40:58.838Z,35.88
2022-07-29T20:44:01.489Z,36.82
2022-07-29T20:47:03.552Z,37.23
2022-07-29T20:50:05.789Z,36.97
2022-07-29T20:53:07.672Z,37.86
2022-07-29T20:56:09.539Z,35.98
2022-07-29T20:59:11.578Z,37.37
2022-07-29T21:02:13.471Z,36.99
2022-07-29T21:05:15.458Z,37.16
2022-07-29T21:08:17.334Z,37.44
2022-07-29T21:11:42.788Z,38.05
2022-07-29T21:14:40.979Z,38.76
2022-07-29T21:17:48.669Z,40.33
2022-07-29T21:20:50.542Z,38.67
2022-07-29T21:23:53.227Z,38.52
2022-07-29T21:27:20.598Z,39.54
2022-07-29T21:30:23.518Z,39.70
2022-07-29T21:33:26.314Z,39.62
2022-07-29T21:36:47.765Z,40.29
2022-07-29T21:39:50.051Z,40.31
2022-07-29T21:42:51.905Z,40.81
2022-07-29T21:45:54.489Z,41.20
2022-07-29T21:48:56.423Z,41.50
2022-07-29T21:51:58.264Z,42.19
2022-07-29T21:55:01.590Z,42.77
2022-07-29T21:58:03.894Z,42.65
2022-07-29T22:01:05.772Z,43.66
2022-07-29T22:04:07.785Z,43.66
2022-07-29T22:07:09.730Z,44.03
2022-07-29T22:10:11.576Z,42.49
2022-07-29T22:13:13.455Z,43.55
2022-07-29T22:16:15.437Z,43.74
2022-07-29T22:19:17.296Z,44.41
2022-07-29T22:22:19.238Z,44.79
2022-07-29T22:25:21.146Z,45.98
2022-07-29T22:28:23.038Z,45.76
2022-07-29T22:31:24.940Z,46.25
2022-07-29T22:34:26.825Z,47.32
2022-07-29T22:37:39.263Z,46.97
2022-07-29T22:40:41.141Z,46.55
2022-07-29T22:43:43.041Z,47.23
2022-07-29T22:46:44.866Z,48.36
2022-07-29T22:49:46.713Z,47.54
2022-07-29T22:52:48.605Z,47.13
2022-07-29T22:55:50.551Z,47.15
2022-07-29T22:58:55.387Z,46.97
2022-07-29T23:01:57.278Z,46.98
2022-07-29T23:04:59.183Z,46.71
2022-07-29T23:08:01.282Z,46.88
2022-07-29T23:11:03.136Z,47.05
2022-07-29T23:14:05.003Z,47.46
2022-07-29T23:17:11.564Z,46.71
2022-07-29T23:20:14.700Z,47.17
2022-07-29T23:23:16.850Z,47.63
2022-07-29T23:26:18.780Z,47.35
2022-07-29T23:29:20.605Z,47.44
2022-07-29T23:32:22.430Z,47.52
2022-07-29T23:35:26.551Z,48.75
2022-07-29T23:38:28.437Z,46.99
2022-07-29T23:41:30.753Z,50.43
2022-07-29T23:44:32.663Z,47.73
2022-07-29T23:47:34.707Z,48.08
2022-07-29T23:50:36.649Z,49.02
2022-07-29T23:53:38.511Z,49.63
2022-07-29T23:56:58.024Z,50.67
